createdAt,value
2019-02-25T00:04:04.175Z,20.30
2019-02-25T00:09:10.761Z,20.87
2019-02-25T00:14:16.783Z,20.00
2019-02-25T00:19:22.112Z,16.87
2019-02-25T00:24:27.421Z,23.70
2019-02-25T00:29:32.763Z,19.80
2019-02-25T00:34:38.092Z,16.30
2019-02-25T00:39:43.480Z,18.90
2019-02-25T00:44:48.860Z,16.70
2019-02-25T00:49:54.184Z,16.80
2019-02-25T00:54:59.580Z,16.73
2019-02-25T01:00:08.116Z,19.27
2019-02-25T01:05:13.812Z,18.80
2019-02-25T01:10:19.186Z,17.97
2019-02-25T01:15:24.493Z,17.60
2019-02-25T01:20:29.896Z,17.67
2019-02-25T01:25:35.256Z,19.00
2019-02-25T01:30:41.107Z,15.40
2019-02-25T01:35:46.439Z,15.90
2019-02-25T01:40:52.011Z,14.53
2019-02-25T01:45:57.321Z,16.20
2019-02-25T01:51:02.905Z,16.70
2019-02-25T01:56:08.215Z,14.00
2019-02-25T02:01:13.588Z,15.13
2019-02-25T02:06:19.303Z,14.67
2019-02-25T02:11:24.613Z,14.17
2019-02-25T02:16:30.867Z,14.43
2019-02-25T02:21:36.203Z,13.33
2019-02-25T02:26:41.810Z,17.50
2019-02-25T02:31:47.120Z,14.30
2019-02-25T02:36:52.564Z,15.10
2019-02-25T02:42:22.165Z,13.47
2019-02-25T02:47:42.991Z,13.43
2019-02-25T02:52:48.291Z,12.53
2019-02-25T02:57:53.680Z,13.40
2019-02-25T03:02:59.007Z,14.60
2019-02-25T03:08:04.413Z,13.20
2019-02-25T03:13:09.715Z,11.73
2019-02-25T03:18:15.012Z,16.97
2019-02-25T03:23:20.320Z,11.90
2019-02-25T03:28:25.626Z,10.57
2019-02-25T03:33:30.957Z,12.70
2019-02-25T03:38:36.249Z,17.13
2019-02-25T03:43:41.555Z,12.73
2019-02-25T03:48:46.875Z,15.10
2019-02-25T03:53:52.175Z,12.50
2019-02-25T03:58:57.487Z,12.40
2019-02-25T04:04:02.824Z,16.03
2019-02-25T04:09:08.854Z,11.33
2019-02-25T04:14:14.181Z,15.47
2019-02-25T04:19:19.498Z,13.30
2019-02-25T04:24:24.794Z,12.30
2019-02-25T04:29:30.063Z,10.67
2019-02-25T04:34:35.381Z,11.27
2019-02-25T04:39:40.673Z,11.53
2019-02-25T04:44:45.972Z,14.30
2019-02-25T04:49:51.294Z,12.43
2019-02-25T04:54:57.182Z,15.23
2019-02-25T05:00:04.805Z,10.00
2019-02-25T05:05:10.324Z,14.47
2019-02-25T05:10:15.633Z,12.53
2019-02-25T05:15:23.273Z,11.43
2019-02-25T05:20:28.582Z,10.83
2019-02-25T05:25:33.899Z,10.57
2019-02-25T05:30:39.218Z,12.63
2019-02-25T05:35:44.741Z,14.10
2019-02-25T05:40:50.062Z,10.40
2019-02-25T05:45:55.369Z,9.97
2019-02-25T05:51:00.682Z,14.87
2019-02-25T05:56:06.005Z,12.97
2019-02-25T06:01:11.395Z,10.43
2019-02-25T06:06:16.820Z,13.57
2019-02-25T06:11:22.309Z,10.73
2019-02-25T06:16:27.625Z,12.90
2019-02-25T06:21:32.948Z,11.43
2019-02-25T06:26:38.788Z,12.07
2019-02-25T06:31:45.292Z,14.43
2019-02-25T06:36:50.626Z,13.93
2019-02-25T06:41:55.936Z,11.33
2019-02-25T06:47:01.227Z,11.13
2019-02-25T06:52:06.582Z,13.20
2019-02-25T06:57:11.903Z,13.17
2019-02-25T07:02:17.272Z,12.37
2019-02-25T07:07:40.213Z,17.93
2019-02-25T07:13:16.502Z,12.57
2019-02-25T07:18:27.952Z,12.03
2019-02-25T07:23:45.814Z,15.27
2019-02-25T07:29:16.127Z,13.10
2019-02-25T07:34:32.047Z,13.53
2019-02-25T07:40:08.616Z,14.47
2019-02-25T07:45:25.388Z,14.33
2019-02-25T07:50:55.807Z,14.87
2019-02-25T07:56:18.860Z,13.33
2019-02-25T08:01:48.910Z,16.53
2019-02-25T08:07:04.533Z,14.73
2019-02-25T08:12:24.940Z,10.83
2019-02-25T08:17:58.119Z,10.67
2019-02-25T08:23:09.968Z,13.43
2019-02-25T08:28:46.507Z,13.37
2019-02-25T08:33:59.804Z,13.87
2019-02-25T08:39:44.193Z,13.97
2019-02-25T08:45:01.725Z,17.67
2019-02-25T08:50:09.757Z,12.73
2019-02-25T08:55:15.059Z,15.93
2019-02-25T09:00:20.370Z,14.40
2019-02-25T09:05:25.680Z,14.53
2019-02-25T09:10:30.995Z,13.93
2019-02-25T09:15:36.296Z,12.13
2019-02-25T09:20:42.420Z,12.80
2019-02-25T09:25:48.863Z,13.13
2019-02-25T09:30:54.237Z,11.43
2019-02-25T09:35:59.685Z,13.57
2019-02-25T09:41:05.039Z,13.73
2019-02-25T09:46:10.341Z,13.00
2019-02-25T09:51:15.700Z,13.83
2019-02-25T09:56:21.313Z,11.50
2019-02-25T10:01:26.968Z,11.53
2019-02-25T10:06:32.838Z,12.70
2019-02-25T10:11:38.523Z,12.30
2019-02-25T10:16:44.567Z,12.00
2019-02-25T10:21:50.095Z,11.67
2019-02-25T10:26:55.885Z,11.53
2019-02-25T10:32:04.841Z,11.83
2019-02-25T10:37:11.139Z,14.30
2019-02-25T10:42:18.583Z,15.03
2019-02-25T10:47:24.148Z,13.43
2019-02-25T10:52:30.065Z,11.07
2019-02-25T10:57:35.517Z,12.77
2019-02-25T11:02:44.189Z,10.23
2019-02-25T11:07:50.221Z,11.30
2019-02-25T11:12:57.580Z,11.70
2019-02-25T11:18:03.998Z,12.23
2019-02-25T11:23:12.826Z,12.10
2019-02-25T11:28:25.542Z,10.40
2019-02-25T11:33:30.235Z,11.30
2019-02-25T11:38:37.353Z,13.53
2019-02-25T11:43:44.151Z,12.67
2019-02-25T11:48:51.353Z,11.67
2019-02-25T11:53:59.534Z,10.53
2019-02-25T11:59:05.667Z,9.50
2019-02-25T12:04:13.668Z,9.67
2019-02-25T12:09:20.695Z,11.45
2019-02-25T12:14:27.928Z,10.28
2019-02-25T12:19:34.406Z,9.97
2019-02-25T12:24:39.956Z,10.67
2019-02-25T12:29:45.619Z,10.50
2019-02-25T12:34:51.305Z,11.60
2019-02-25T12:39:58.427Z,12.93
2019-02-25T12:45:03.859Z,11.30
2019-02-25T12:50:11.884Z,12.33
2019-02-25T12:55:17.328Z,11.87
2019-02-25T13:00:22.746Z,14.30
2019-02-25T13:05:29.028Z,11.00
2019-02-25T13:10:34.535Z,9.53
2019-02-25T13:15:40.581Z,10.43
2019-02-25T13:20:45.927Z,11.63
2019-02-25T13:25:51.235Z,9.25
2019-02-25T13:30:58.701Z,9.50
2019-02-25T13:36:06.464Z,9.23
2019-02-25T13:41:13.489Z,11.80
2019-02-25T13:46:20.090Z,11.00
2019-02-25T13:51:26.388Z,8.53
2019-02-25T13:56:32.208Z,8.73
2019-02-25T14:01:59.367Z,11.28
2019-02-25T14:07:12.484Z,10.82
2019-02-25T14:12:18.314Z,10.50
2019-02-25T14:17:26.424Z,9.83
2019-02-25T14:22:33.033Z,9.30
2019-02-25T14:27:38.450Z,12.03
2019-02-25T14:32:45.177Z,11.57
2019-02-25T14:37:50.927Z,7.63
2019-02-25T14:42:57.426Z,7.20
2019-02-25T14:48:05.476Z,7.93
2019-02-25T14:53:14.394Z,5.40
2019-02-25T14:58:20.133Z,6.63
2019-02-25T15:03:27.043Z,7.20
2019-02-25T15:08:34.164Z,7.93
2019-02-25T15:13:39.667Z,6.50
2019-02-25T15:18:46.200Z,6.63
2019-02-25T15:23:52.440Z,6.20
2019-02-25T15:28:59.031Z,6.47
2019-02-25T15:34:05.639Z,8.40
2019-02-25T15:39:14.808Z,10.37
2019-02-25T15:44:20.692Z,11.43
2019-02-25T15:49:28.070Z,14.83
2019-02-25T15:54:35.095Z,13.93
2019-02-25T15:59:41.142Z,14.20
2019-02-25T16:04:47.874Z,16.20
2019-02-25T16:09:54.698Z,13.57
2019-02-25T16:15:01.271Z,14.60
2019-02-25T16:20:09.752Z,13.30
2019-02-25T16:25:16.744Z,14.90
2019-02-25T16:30:23.640Z,9.70
2019-02-25T16:35:30.356Z,49.77
2019-02-25T16:40:38.376Z,50.43
2019-02-25T16:45:46.477Z,29.97
2019-02-25T16:50:51.250Z,32.20
2019-02-25T16:55:56.879Z,30.03
2019-02-25T17:01:03.693Z,28.47
2019-02-25T17:06:11.659Z,19.23
2019-02-25T17:11:19.572Z,43.53
2019-02-25T17:16:25.545Z,17.07
2019-02-25T17:21:31.318Z,11.93
2019-02-25T17:26:36.863Z,16.33
2019-02-25T17:31:44.019Z,15.33
2019-02-25T17:36:52.358Z,17.17
2019-02-25T17:41:59.185Z,20.17
2019-02-25T17:47:06.559Z,22.40
2019-02-25T17:52:13.969Z,15.87
2019-02-25T17:57:19.655Z,18.93
2019-02-25T18:02:25.914Z,22.00
2019-02-25T18:07:31.537Z,17.70
2019-02-25T18:12:38.640Z,18.53
2019-02-25T18:17:44.857Z,14.97
2019-02-25T18:22:51.014Z,18.97
2019-02-25T18:27:56.878Z,14.87
2019-02-25T18:33:05.266Z,16.83
2019-02-25T18:38:10.883Z,16.97
2019-02-25T18:43:16.433Z,12.53
2019-02-25T18:48:23.287Z,10.00
2019-02-25T18:53:29.302Z,11.47
2019-02-25T18:58:37.459Z,11.23
2019-02-25T19:03:42.932Z,12.67
2019-02-25T19:08:51.614Z,14.03
2019-02-25T19:14:01.775Z,11.73
2019-02-25T19:19:08.079Z,10.50
2019-02-25T19:24:16.602Z,12.30
2019-02-25T19:29:23.651Z,13.77
2019-02-25T19:34:29.027Z,13.27
2019-02-25T19:39:35.429Z,12.23
2019-02-25T19:44:41.391Z,11.90
2019-02-25T19:49:46.911Z,9.17
2019-02-25T19:54:52.418Z,21.13
2019-02-25T19:59:58.389Z,21.30
2019-02-25T20:05:09.566Z,24.13
2019-02-25T20:10:13.715Z,21.67
2019-02-25T20:15:21.242Z,23.27
2019-02-25T20:20:34.642Z,22.23
2019-02-25T20:25:42.393Z,20.97
2019-02-25T20:30:49.330Z,15.23
2019-02-25T20:35:56.062Z,11.93
2019-02-25T20:41:02.525Z,11.00
2019-02-25T20:46:08.677Z,11.90
2019-02-25T20:51:14.284Z,10.57
2019-02-25T20:56:19.572Z,9.57
2019-02-25T21:01:27.383Z,14.07
2019-02-25T21:06:33.605Z,11.20
2019-02-25T21:11:39.912Z,13.17
2019-02-25T21:16:45.336Z,11.53
2019-02-25T21:21:55.017Z,10.50
2019-02-25T21:26:59.617Z,9.03
2019-02-25T21:32:04.979Z,13.80
2019-02-25T21:37:11.481Z,8.83
2019-02-25T21:42:17.690Z,6.20
2019-02-25T21:47:26.521Z,6.50
2019-02-25T21:52:35.032Z,7.97
2019-02-25T21:57:40.554Z,6.93
2019-02-25T22:02:48.149Z,7.37
2019-02-25T22:07:57.322Z,10.07
2019-02-25T22:13:06.598Z,6.43
2019-02-25T22:18:11.453Z,6.67
2019-02-25T22:23:21.945Z,7.87
2019-02-25T22:28:25.789Z,6.73
2019-02-25T22:33:32.036Z,9.43
2019-02-25T22:38:38.105Z,6.43
2019-02-25T22:43:46.481Z,7.13
2019-02-25T22:48:52.517Z,8.20
2019-02-25T22:53:58.992Z,10.73
2019-02-25T22:59:05.270Z,7.43
2019-02-25T23:04:13.051Z,9.60
2019-02-25T23:09:18.963Z,9.70
2019-02-25T23:14:25.414Z,7.03
2019-02-25T23:19:31.158Z,9.23
2019-02-25T23:24:38.768Z,7.57
2019-02-25T23:29:47.774Z,11.67
2019-02-25T23:34:52.855Z,11.03
2019-02-25T23:40:02.220Z,9.00
2019-02-25T23:45:08.800Z,11.83
2019-02-25T23:50:14.615Z,10.73
2019-02-25T23:55:23.877Z,8.70
